createdAt,value
2023-01-05T00:01:45.581Z,1.40
2023-01-05T00:04:12.511Z,1.58
2023-01-05T00:06:39.608Z,1.45
2023-01-05T00:09:07.354Z,1.30
2023-01-05T00:11:52.250Z,1.10
2023-01-05T00:14:41.306Z,1.38
2023-01-05T00:17:29.582Z,1.20
2023-01-05T00:20:14.457Z,0.90
2023-01-05T00:22:49.372Z,0.90
2023-01-05T00:25:18.252Z,1.00
2023-01-05T00:27:46.293Z,0.80
2023-01-05T00:30:15.196Z,0.95
2023-01-05T00:32:42.692Z,1.00
2023-01-05T00:35:10.410Z,1.08
2023-01-05T00:37:39.990Z,0.70
2023-01-05T00:40:08.191Z,1.10
2023-01-05T00:42:34.660Z,0.80
2023-01-05T00:45:00.979Z,0.80
2023-01-05T00:47:27.426Z,0.70
2023-01-05T00:49:53.817Z,0.88
2023-01-05T00:52:20.270Z,0.63
2023-01-05T00:54:46.648Z,0.80
2023-01-05T00:57:14.076Z,0.77
2023-01-05T00:59:40.894Z,1.10
2023-01-05T01:02:07.678Z,1.02
2023-01-05T01:04:34.846Z,1.00
2023-01-05T01:07:02.232Z,1.05
2023-01-05T01:09:28.761Z,0.85
2023-01-05T01:11:55.158Z,0.90
2023-01-05T01:14:21.532Z,1.05
2023-01-05T01:16:48.040Z,0.90
2023-01-05T01:19:17.849Z,0.80
2023-01-05T01:21:44.673Z,0.88
2023-01-05T01:24:16.867Z,0.80
2023-01-05T01:26:43.249Z,1.00
2023-01-05T01:29:13.033Z,0.73
2023-01-05T01:31:39.436Z,1.05
2023-01-05T01:34:05.888Z,0.77
2023-01-05T01:36:32.323Z,1.10
2023-01-05T01:39:00.423Z,0.70
2023-01-05T01:41:26.983Z,1.00
2023-01-05T01:43:55.543Z,0.55
2023-01-05T01:46:23.723Z,1.10
2023-01-05T01:48:55.998Z,0.55
2023-01-05T01:51:38.916Z,0.90
2023-01-05T01:54:07.534Z,0.85
2023-01-05T01:56:37.923Z,0.98
2023-01-05T01:59:04.312Z,0.70
2023-01-05T02:01:30.975Z,0.93
2023-01-05T02:03:58.085Z,0.68
2023-01-05T02:06:24.430Z,0.90
2023-01-05T02:08:50.866Z,0.90
2023-01-05T02:11:25.028Z,1.10
2023-01-05T02:16:43.252Z,0.68
2023-01-05T02:19:47.121Z,1.10
2023-01-05T02:22:44.188Z,1.27
2023-01-05T02:25:43.353Z,0.90
2023-01-05T02:28:31.302Z,1.00
2023-01-05T02:31:19.546Z,1.33
2023-01-05T02:34:00.283Z,1.65
2023-01-05T02:36:50.150Z,2.05
2023-01-05T02:39:19.120Z,2.63
2023-01-05T02:41:57.323Z,1.92
2023-01-05T02:44:23.725Z,2.20
2023-01-05T02:47:04.900Z,2.15
2023-01-05T02:49:33.344Z,2.47
2023-01-05T02:52:00.991Z,2.65
2023-01-05T02:54:32.008Z,2.47
2023-01-05T02:57:20.289Z,2.78
2023-01-05T02:59:53.343Z,2.55
2023-01-05T03:02:25.020Z,2.80
2023-01-05T03:04:52.800Z,2.53
2023-01-05T03:07:23.895Z,2.47
2023-01-05T03:09:50.398Z,2.60
2023-01-05T03:12:42.702Z,2.38
2023-01-05T03:15:13.890Z,3.05
2023-01-05T03:17:45.762Z,3.20
2023-01-05T03:20:16.626Z,2.40
2023-01-05T03:23:02.867Z,2.58
2023-01-05T03:25:47.876Z,2.95
2023-01-05T03:28:36.123Z,2.85
2023-01-05T03:31:26.318Z,2.47
2023-01-05T03:34:14.319Z,2.67
2023-01-05T03:36:46.231Z,2.70
2023-01-05T03:39:14.061Z,2.53
2023-01-05T03:41:40.426Z,2.47
2023-01-05T03:44:07.172Z,2.58
2023-01-05T03:46:33.654Z,2.78
2023-01-05T03:49:00.076Z,2.60
2023-01-05T03:51:26.463Z,3.05
2023-01-05T03:53:52.857Z,3.20
2023-01-05T03:56:19.242Z,2.72
2023-01-05T03:58:45.616Z,3.30
2023-01-05T04:01:12.088Z,3.30
2023-01-05T04:03:40.594Z,2.80
2023-01-05T04:06:07.278Z,2.22
2023-01-05T04:08:33.693Z,2.67
2023-01-05T04:11:12.866Z,2.97
2023-01-05T04:13:39.339Z,2.45
2023-01-05T04:16:06.033Z,2.25
2023-01-05T04:18:32.571Z,2.50
2023-01-05T04:20:58.900Z,2.33
2023-01-05T04:23:25.263Z,2.83
2023-01-05T04:25:51.619Z,2.13
2023-01-05T04:28:17.992Z,2.20
2023-01-05T04:30:45.134Z,2.92
2023-01-05T04:33:11.855Z,2.47
2023-01-05T04:35:38.261Z,3.15
2023-01-05T04:38:04.604Z,3.13
2023-01-05T04:40:31.026Z,2.75
2023-01-05T04:42:57.387Z,2.72
2023-01-05T04:45:23.765Z,2.60
2023-01-05T04:47:51.585Z,3.10
2023-01-05T04:50:18.394Z,2.88
2023-01-05T04:52:45.040Z,2.53
2023-01-05T04:55:11.733Z,2.47
2023-01-05T04:57:38.120Z,2.33
2023-01-05T05:00:05.117Z,2.30
2023-01-05T05:02:31.846Z,3.25
2023-01-05T05:04:58.312Z,3.10
2023-01-05T05:07:24.716Z,2.22
2023-01-05T05:09:51.077Z,2.28
2023-01-05T05:12:20.531Z,3.00
2023-01-05T05:14:50.200Z,2.72
2023-01-05T05:17:17.025Z,2.63
2023-01-05T05:19:43.507Z,2.80
2023-01-05T05:22:09.974Z,2.72
2023-01-05T05:24:36.296Z,2.75
2023-01-05T05:27:02.941Z,3.08
2023-01-05T05:29:29.311Z,3.25
2023-01-05T05:31:55.689Z,3.33
2023-01-05T05:34:22.121Z,2.65
2023-01-05T05:36:48.506Z,2.35
2023-01-05T05:39:15.556Z,2.80
2023-01-05T05:41:42.056Z,2.20
2023-01-05T05:44:08.606Z,3.00
2023-01-05T05:46:35.246Z,2.80
2023-01-05T05:49:01.678Z,2.75
2023-01-05T05:51:28.096Z,4.03
2023-01-05T05:53:54.533Z,3.35
2023-01-05T05:56:20.871Z,3.17
2023-01-05T05:58:47.223Z,3.15
2023-01-05T06:01:13.702Z,3.05
2023-01-05T06:03:40.152Z,3.78
2023-01-05T06:06:06.852Z,3.38
2023-01-05T06:08:33.183Z,3.28
2023-01-05T06:10:59.573Z,3.00
2023-01-05T06:13:26.229Z,2.90
2023-01-05T06:15:52.652Z,3.47
2023-01-05T06:18:19.044Z,3.22
2023-01-05T06:20:45.935Z,2.78
2023-01-05T06:23:12.413Z,3.17
2023-01-05T06:25:38.826Z,3.50
2023-01-05T06:28:05.220Z,2.97
2023-01-05T06:30:31.645Z,3.13
2023-01-05T06:32:58.147Z,3.38
2023-01-05T06:35:24.527Z,2.72
2023-01-05T06:37:50.893Z,3.40
2023-01-05T06:40:17.299Z,3.85
2023-01-05T06:42:43.708Z,3.00
2023-01-05T06:45:12.412Z,3.30
2023-01-05T06:47:40.633Z,3.90
2023-01-05T06:50:07.927Z,3.47
2023-01-05T06:52:40.014Z,2.88
2023-01-05T06:55:10.785Z,3.65
2023-01-05T06:57:37.467Z,3.20
2023-01-05T07:00:06.509Z,4.13
2023-01-05T07:02:33.050Z,3.03
2023-01-05T07:04:59.461Z,3.42
2023-01-05T07:07:26.032Z,3.08
2023-01-05T07:09:52.400Z,3.72
2023-01-05T07:12:18.811Z,3.08
2023-01-05T07:14:45.541Z,3.42
2023-01-05T07:17:13.140Z,3.17
2023-01-05T07:19:40.194Z,3.13
2023-01-05T07:22:06.775Z,3.58
2023-01-05T07:24:33.164Z,3.28
2023-01-05T07:27:03.070Z,3.38
2023-01-05T07:29:34.064Z,2.75
2023-01-05T07:32:00.511Z,3.00
2023-01-05T07:34:26.916Z,4.55
2023-01-05T07:36:53.249Z,3.55
2023-01-05T07:39:19.639Z,2.63
2023-01-05T07:41:46.072Z,2.85
2023-01-05T07:44:12.589Z,3.03
2023-01-05T07:46:38.985Z,3.03
2023-01-05T07:49:05.441Z,3.13
2023-01-05T07:51:31.874Z,2.67
2023-01-05T07:53:58.463Z,2.83
2023-01-05T07:56:24.772Z,2.60
2023-01-05T07:58:51.107Z,3.55
2023-01-05T08:01:20.115Z,3.05
2023-01-05T08:03:46.775Z,2.75
2023-01-05T08:06:15.200Z,2.55
2023-01-05T08:08:41.689Z,3.63
2023-01-05T08:11:09.611Z,2.97
2023-01-05T08:13:55.018Z,2.97
2023-01-05T08:16:22.187Z,2.75
2023-01-05T08:18:48.593Z,2.90
2023-01-05T08:21:14.972Z,3.38
2023-01-05T08:23:41.371Z,2.60
2023-01-05T08:26:16.184Z,2.90
2023-01-05T08:28:43.332Z,2.85
2023-01-05T08:31:16.206Z,2.97
2023-01-05T08:33:43.179Z,3.15
2023-01-05T08:36:11.417Z,2.90
2023-01-05T08:38:38.002Z,3.22
2023-01-05T08:41:04.927Z,3.38
2023-01-05T08:43:31.335Z,2.53
2023-01-05T08:45:57.770Z,2.78
2023-01-05T08:48:24.244Z,3.50
2023-01-05T08:50:50.645Z,2.42
2023-01-05T08:53:17.027Z,2.33
2023-01-05T08:55:43.564Z,2.15
2023-01-05T08:58:09.899Z,2.35
2023-01-05T09:00:36.283Z,2.22
2023-01-05T09:03:02.839Z,3.28
2023-01-05T09:05:29.315Z,2.83
2023-01-05T09:07:55.685Z,2.97
2023-01-05T09:10:22.129Z,2.35
2023-01-05T09:12:49.177Z,2.67
2023-01-05T09:15:15.614Z,2.72
2023-01-05T09:17:42.019Z,2.80
2023-01-05T09:20:08.905Z,2.72
2023-01-05T09:22:36.140Z,2.33
2023-01-05T09:25:03.423Z,2.83
2023-01-05T09:27:29.837Z,2.97
2023-01-05T09:29:56.180Z,2.78
2023-01-05T09:32:24.015Z,2.60
2023-01-05T09:34:50.374Z,3.15
2023-01-05T09:37:16.756Z,2.90
2023-01-05T09:39:43.108Z,2.80
2023-01-05T09:42:14.909Z,2.72
2023-01-05T09:44:52.698Z,3.03
2023-01-05T09:47:29.488Z,2.58
2023-01-05T09:49:57.891Z,3.60
2023-01-05T09:52:24.789Z,4.32
2023-01-05T09:54:51.151Z,3.00
2023-01-05T09:57:20.510Z,3.30
2023-01-05T09:59:50.024Z,3.30
2023-01-05T10:02:36.877Z,3.10
2023-01-05T10:05:05.593Z,3.53
2023-01-05T10:07:40.656Z,2.80
2023-01-05T10:10:35.917Z,3.33
2023-01-05T10:13:03.435Z,2.70
2023-01-05T10:15:34.759Z,3.22
2023-01-05T10:18:09.753Z,2.83
2023-01-05T10:20:36.111Z,3.13
2023-01-05T10:23:33.081Z,3.72
2023-01-05T10:26:05.231Z,2.95
2023-01-05T10:28:46.938Z,3.42
2023-01-05T10:31:23.793Z,2.78
2023-01-05T10:34:11.485Z,3.50
2023-01-05T10:37:08.572Z,3.15
2023-01-05T10:39:52.472Z,3.42
2023-01-05T10:42:35.320Z,2.80
2023-01-05T10:45:03.447Z,2.88
2023-01-05T10:47:32.001Z,2.83
2023-01-05T10:49:59.171Z,3.35
2023-01-05T10:52:26.339Z,3.60
2023-01-05T10:54:57.784Z,3.28
2023-01-05T10:57:35.968Z,3.20
2023-01-05T11:00:11.013Z,2.95
2023-01-05T11:03:03.472Z,3.85
2023-01-05T11:05:36.697Z,3.45
2023-01-05T11:08:05.972Z,3.10
2023-01-05T11:10:38.079Z,3.50
2023-01-05T11:13:27.362Z,3.35
2023-01-05T11:15:56.164Z,3.38
2023-01-05T11:18:36.020Z,3.50
2023-01-05T11:21:19.583Z,3.55
2023-01-05T11:23:48.964Z,3.60
2023-01-05T11:26:19.557Z,3.67
2023-01-05T11:29:11.548Z,3.35
2023-01-05T11:31:43.013Z,4.55
2023-01-05T11:34:30.615Z,5.20
2023-01-05T11:37:07.810Z,4.00
2023-01-05T11:39:48.061Z,4.10
2023-01-05T11:42:36.217Z,4.13
2023-01-05T11:45:17.753Z,4.38
2023-01-05T11:47:49.416Z,4.35
2023-01-05T11:50:29.138Z,4.88
2023-01-05T11:52:58.501Z,3.70
2023-01-05T11:55:29.945Z,3.92
2023-01-05T11:58:17.898Z,4.22
2023-01-05T12:00:53.686Z,4.28
2023-01-05T12:03:32.177Z,3.65
2023-01-05T12:06:09.221Z,3.47
2023-01-05T12:08:55.589Z,3.42
2023-01-05T12:11:22.728Z,4.15
2023-01-05T12:14:18.323Z,4.03
2023-01-05T12:16:55.962Z,4.32
2023-01-05T12:19:53.336Z,4.78
2023-01-05T12:22:32.237Z,3.65
2023-01-05T12:25:09.811Z,3.47
2023-01-05T12:28:09.640Z,3.95
2023-01-05T12:34:13.246Z,4.13
2023-01-05T12:36:59.172Z,4.05
2023-01-05T12:39:44.511Z,3.58
2023-01-05T12:42:32.735Z,3.70
2023-01-05T12:45:33.125Z,4.40
2023-01-05T12:48:06.855Z,3.67
2023-01-05T12:50:43.385Z,3.83
2023-01-05T12:53:37.686Z,4.25
2023-01-05T12:56:45.129Z,3.80
2023-01-05T12:59:19.520Z,4.05
2023-01-05T13:02:08.621Z,4.30
2023-01-05T13:04:48.467Z,3.95
2023-01-05T13:07:24.726Z,4.28
2023-01-05T13:10:02.281Z,4.70
2023-01-05T13:12:30.700Z,3.65
2023-01-05T13:15:09.284Z,4.32
2023-01-05T13:17:38.117Z,3.40
2023-01-05T13:20:19.074Z,4.43
2023-01-05T13:22:47.004Z,3.92
2023-01-05T13:25:22.753Z,3.78
2023-01-05T13:27:49.149Z,3.70
2023-01-05T13:30:31.430Z,3.78
2023-01-05T13:33:21.467Z,3.20
2023-01-05T13:36:08.213Z,4.38
2023-01-05T13:38:56.123Z,4.20
2023-01-05T13:41:28.369Z,4.35
2023-01-05T13:44:45.368Z,3.45
2023-01-05T13:47:46.243Z,3.63
2023-01-05T13:50:21.130Z,4.07
2023-01-05T13:53:10.690Z,4.45
2023-01-05T13:55:43.284Z,3.67
2023-01-05T13:58:42.035Z,4.70
2023-01-05T14:01:12.973Z,3.33
2023-01-05T14:03:41.517Z,3.38
2023-01-05T14:06:17.822Z,3.67
2023-01-05T14:08:58.217Z,3.65
2023-01-05T14:11:26.426Z,3.95
2023-01-05T14:13:58.365Z,3.60
2023-01-05T14:16:37.529Z,3.58
2023-01-05T14:19:22.460Z,3.22
2023-01-05T14:22:00.256Z,3.00
2023-01-05T14:24:34.256Z,3.80
2023-01-05T14:27:05.039Z,3.15
2023-01-05T14:29:46.702Z,3.10
2023-01-05T14:32:25.673Z,3.90
2023-01-05T14:37:37.275Z,3.72
2023-01-05T14:40:25.444Z,3.45
2023-01-05T14:42:51.846Z,3.13
2023-01-05T14:45:29.903Z,3.95
2023-01-05T14:48:08.764Z,4.18
2023-01-05T14:50:38.891Z,4.25
2023-01-05T14:53:20.721Z,3.15
2023-01-05T14:55:57.374Z,2.88
2023-01-05T14:58:36.160Z,3.80
2023-01-05T15:03:47.915Z,3.85
2023-01-05T15:06:58.699Z,3.50
2023-01-05T15:09:37.059Z,4.00
2023-01-05T15:12:22.536Z,4.07
2023-01-05T15:15:00.576Z,4.18
2023-01-05T15:17:55.191Z,5.45
2023-01-05T15:20:33.784Z,5.47
2023-01-05T15:23:18.172Z,5.10
2023-01-05T15:26:21.835Z,4.40
2023-01-05T15:29:46.637Z,5.05
2023-01-05T15:32:19.076Z,3.97
2023-01-05T15:34:54.757Z,4.85
2023-01-05T15:37:38.551Z,4.03
2023-01-05T15:40:09.102Z,4.35
2023-01-05T15:42:43.708Z,4.28
2023-01-05T15:45:19.178Z,3.80
2023-01-05T15:47:46.629Z,4.03
2023-01-05T15:50:24.164Z,4.47
2023-01-05T15:52:56.434Z,3.80
2023-01-05T15:55:23.143Z,4.63
2023-01-05T15:57:58.399Z,4.60
2023-01-05T16:00:27.703Z,3.60
2023-01-05T16:02:54.289Z,4.43
2023-01-05T16:05:23.518Z,4.05
2023-01-05T16:07:59.581Z,4.05
2023-01-05T16:10:35.253Z,4.57
2023-01-05T16:13:11.966Z,3.78
2023-01-05T16:15:40.719Z,4.85
2023-01-05T16:18:12.194Z,4.03
2023-01-05T16:20:39.860Z,4.20
2023-01-05T16:23:15.129Z,5.13
2023-01-05T16:25:50.396Z,4.80
2023-01-05T16:28:18.713Z,6.28
2023-01-05T16:30:46.860Z,4.20
2023-01-05T16:33:35.745Z,4.05
2023-01-05T16:36:21.912Z,4.63
2023-01-05T16:38:48.622Z,5.18
2023-01-05T16:41:21.850Z,4.28
2023-01-05T16:43:55.343Z,4.83
2023-01-05T16:46:26.132Z,3.97
2023-01-05T16:48:59.682Z,4.45
2023-01-05T16:51:31.783Z,4.20
2023-01-05T16:54:16.776Z,4.88
2023-01-05T16:57:01.469Z,4.65
2023-01-05T16:59:32.765Z,3.85
2023-01-05T17:01:59.349Z,4.95
2023-01-05T17:04:25.722Z,4.82
2023-01-05T17:06:52.394Z,4.32
2023-01-05T17:09:28.460Z,4.03
2023-01-05T17:11:55.280Z,4.78
2023-01-05T17:14:22.668Z,6.75
2023-01-05T17:16:49.186Z,7.95
2023-01-05T17:19:21.220Z,6.93
2023-01-05T17:21:56.956Z,5.80
2023-01-05T17:24:23.748Z,4.85
2023-01-05T17:26:50.145Z,5.10
2023-01-05T17:29:21.596Z,4.55
2023-01-05T17:31:48.053Z,6.43
2023-01-05T17:34:14.705Z,5.43
2023-01-05T17:36:41.513Z,4.40
2023-01-05T17:39:07.905Z,4.50
2023-01-05T17:44:05.713Z,7.25
2023-01-05T17:46:33.679Z,5.38
2023-01-05T17:49:01.064Z,4.72
2023-01-05T17:51:28.554Z,5.30
2023-01-05T17:53:56.367Z,5.85
2023-01-05T17:56:23.120Z,4.75
2023-01-05T17:58:49.526Z,5.30
2023-01-05T18:01:16.356Z,5.93
2023-01-05T18:03:42.802Z,5.25
2023-01-05T18:06:09.347Z,5.63
2023-01-05T18:08:36.356Z,5.70
2023-01-05T18:11:07.216Z,5.32
2023-01-05T18:13:34.569Z,4.97
2023-01-05T18:16:06.591Z,5.25
2023-01-05T18:21:01.352Z,5.03
2023-01-05T18:23:27.729Z,5.15
2023-01-05T18:25:57.200Z,4.53
2023-01-05T18:28:23.582Z,5.22
2023-01-05T18:30:50.006Z,5.80
2023-01-05T18:33:17.640Z,5.78
2023-01-05T18:35:44.094Z,5.10
2023-01-05T18:38:10.475Z,5.13
2023-01-05T18:40:37.725Z,5.03
2023-01-05T18:43:04.097Z,6.03
2023-01-05T18:45:39.269Z,5.53
2023-01-05T18:48:06.163Z,5.60
2023-01-05T18:50:32.579Z,5.30
2023-01-05T18:52:58.925Z,4.40
2023-01-05T18:55:26.642Z,4.47
2023-01-05T18:57:52.977Z,5.55
2023-01-05T19:00:19.488Z,4.82
2023-01-05T19:02:45.907Z,4.05
2023-01-05T19:05:12.322Z,3.67
2023-01-05T19:07:39.626Z,5.72
2023-01-05T19:10:06.222Z,5.30
2023-01-05T19:12:32.630Z,5.25
2023-01-05T19:14:58.974Z,5.30
2023-01-05T19:17:25.413Z,5.05
2023-01-05T19:19:51.745Z,5.53
2023-01-05T19:22:18.273Z,5.65
2023-01-05T19:24:44.635Z,6.20
2023-01-05T19:27:11.025Z,6.63
2023-01-05T19:29:37.401Z,5.15
2023-01-05T19:32:03.803Z,5.00
2023-01-05T19:34:30.151Z,4.10
2023-01-05T19:36:56.569Z,4.35
2023-01-05T19:39:22.943Z,4.53
2023-01-05T19:41:51.316Z,4.00
2023-01-05T19:44:25.821Z,3.80
2023-01-05T19:46:53.236Z,4.97
2023-01-05T19:49:21.950Z,4.55
2023-01-05T19:51:48.729Z,4.10
2023-01-05T19:54:15.537Z,4.25
2023-01-05T19:56:42.670Z,4.65
2023-01-05T19:59:17.928Z,4.50
2023-01-05T20:01:44.550Z,3.80
2023-01-05T20:04:11.173Z,4.18
2023-01-05T20:06:40.743Z,4.50
2023-01-05T20:09:10.413Z,4.22
2023-01-05T20:11:43.494Z,4.53
2023-01-05T20:14:16.847Z,4.05
2023-01-05T20:16:46.860Z,4.67
2023-01-05T20:19:13.571Z,4.47
2023-01-05T20:21:39.938Z,4.28
2023-01-05T20:24:17.440Z,3.88
2023-01-05T20:26:45.645Z,4.35
2023-01-05T20:29:13.377Z,3.90
2023-01-05T20:31:45.584Z,4.15
2023-01-05T20:34:17.789Z,4.28
2023-01-05T20:36:44.779Z,4.35
2023-01-05T20:39:13.291Z,4.10
2023-01-05T20:41:45.375Z,5.20
2023-01-05T20:44:12.746Z,4.90
2023-01-05T20:46:43.495Z,4.50
2023-01-05T20:49:10.373Z,5.05
2023-01-05T20:51:36.840Z,4.45
2023-01-05T20:54:05.674Z,4.80
2023-01-05T20:56:38.274Z,5.00
2023-01-05T20:59:10.845Z,4.97
2023-01-05T21:01:37.419Z,4.07
2023-01-05T21:04:05.020Z,4.80
2023-01-05T21:06:31.711Z,4.57
2023-01-05T21:08:58.177Z,4.90
2023-01-05T21:11:26.020Z,4.85
2023-01-05T21:13:54.383Z,5.57
2023-01-05T21:16:26.525Z,4.38
2023-01-05T21:18:53.739Z,4.35
2023-01-05T21:21:21.466Z,4.88
2023-01-05T21:23:49.490Z,5.40
2023-01-05T21:26:16.227Z,5.10
2023-01-05T21:28:43.390Z,4.82
2023-01-05T21:31:15.425Z,5.15
2023-01-05T21:33:42.270Z,4.47
2023-01-05T21:36:13.896Z,4.85
2023-01-05T21:39:00.718Z,4.70
2023-01-05T21:41:45.569Z,4.35
2023-01-05T21:44:13.484Z,5.00
2023-01-05T21:46:41.099Z,5.25
2023-01-05T21:49:08.353Z,4.40
2023-01-05T21:51:53.095Z,5.30
2023-01-05T21:54:38.423Z,5.10
2023-01-05T21:57:05.227Z,4.93
2023-01-05T21:59:31.898Z,4.97
2023-01-05T22:01:58.445Z,5.85
2023-01-05T22:04:25.102Z,5.60
2023-01-05T22:06:51.636Z,5.32
2023-01-05T22:09:18.140Z,5.40
2023-01-05T22:11:44.730Z,5.15
2023-01-05T22:14:11.156Z,4.97
2023-01-05T22:16:37.659Z,4.75
2023-01-05T22:19:04.333Z,5.55
2023-01-05T22:21:31.011Z,4.60
2023-01-05T22:23:57.572Z,5.15
2023-01-05T22:26:24.307Z,5.22
2023-01-05T22:28:53.407Z,4.90
2023-01-05T22:31:23.207Z,6.07
2023-01-05T22:33:52.081Z,5.40
2023-01-05T22:36:19.549Z,5.53
2023-01-05T22:38:46.959Z,5.50
2023-01-05T22:41:15.850Z,5.68
2023-01-05T22:43:43.045Z,5.97
2023-01-05T22:46:14.146Z,5.60
2023-01-05T22:48:43.685Z,5.90
2023-01-05T22:51:12.961Z,6.07
2023-01-05T22:53:39.954Z,6.47
2023-01-05T22:56:08.417Z,6.45
2023-01-05T22:58:35.100Z,5.68
2023-01-05T23:01:27.800Z,5.30
2023-01-05T23:03:59.041Z,5.72
2023-01-05T23:06:25.945Z,5.85
2023-01-05T23:08:53.518Z,6.20
2023-01-05T23:11:24.668Z,5.25
2023-01-05T23:13:52.116Z,6.22
2023-01-05T23:16:21.946Z,6.13
2023-01-05T23:18:49.647Z,6.38
2023-01-05T23:21:16.953Z,5.60
2023-01-05T23:23:44.131Z,6.18
2023-01-05T23:26:12.426Z,6.68
2023-01-05T23:28:41.582Z,5.93
2023-01-05T23:31:08.109Z,5.68
2023-01-05T23:33:43.848Z,6.38
2023-01-05T23:36:16.978Z,6.63
2023-01-05T23:38:43.617Z,7.05
2023-01-05T23:41:11.672Z,6.05
2023-01-05T23:43:39.120Z,6.40
2023-01-05T23:46:10.942Z,6.25
2023-01-05T23:48:38.190Z,6.90
2023-01-05T23:51:05.965Z,5.90
2023-01-05T23:53:32.359Z,7.20
2023-01-05T23:56:10.694Z,6.55
2023-01-05T23:58:37.369Z,7.13
